sensor_id;sensor_type;location;lat;lon;timestamp;temperature;humidity
9802;DHT22;4940;50.900;4.672;2022-07-30T00:01:30;18.50;99.90
9802;DHT22;4940;50.900;4.672;2022-07-30T00:03:59;18.70;99.90
9802;DHT22;4940;50.900;4.672;2022-07-30T00:06:26;18.60;99.90
9802;DHT22;4940;50.900;4.672;2022-07-30T00:08:53;18.50;99.90
9802;DHT22;4940;50.900;4.672;2022-07-30T00:11:22;18.50;99.90
9802;DHT22;4940;50.900;4.672;2022-07-30T00:13:49;18.40;99.90
9802;DHT22;4940;50.900;4.672;2022-07-30T00:16:17;18.40;99.90
9802;DHT22;4940;50.900;4.672;2022-07-30T00:21:11;18.30;99.90
9802;DHT22;4940;50.900;4.672;2022-07-30T00:23:39;18.20;99.90
9802;DHT22;4940;50.900;4.672;2022-07-30T00:26:07;18.20;99.90
9802;DHT22;4940;50.900;4.672;2022-07-30T00:28:35;18.20;99.90
9802;DHT22;4940;50.900;4.672;2022-07-30T00:31:03;18.10;99.90
9802;DHT22;4940;50.900;4.672;2022-07-30T00:33:30;18.10;99.90
9802;DHT22;4940;50.900;4.672;2022-07-30T00:35:58;18.10;99.90
9802;DHT22;4940;50.900;4.672;2022-07-30T00:38:25;18.00;99.90
9802;DHT22;4940;50.900;4.672;2022-07-30T00:40:52;18.00;99.90
9802;DHT22;4940;50.900;4.672;2022-07-30T00:43:20;18.00;99.90
9802;DHT22;4940;50.900;4.672;2022-07-30T00:48:16;18.10;99.90
9802;DHT22;4940;50.900;4.672;2022-07-30T00:50:43;17.90;99.90
9802;DHT22;4940;50.900;4.672;2022-07-30T00:53:10;17.90;99.90
9802;DHT22;4940;50.900;4.672;2022-07-30T00:55:38;17.90;99.90
9802;DHT22;4940;50.900;4.672;2022-07-30T00:58:05;17.90;99.90
9802;DHT22;4940;50.900;4.672;2022-07-30T01:00:32;17.90;99.90
9802;DHT22;4940;50.900;4.672;2022-07-30T01:03:01;17.80;99.90
9802;DHT22;4940;50.900;4.672;2022-07-30T01:07:56;17.80;99.90
9802;DHT22;4940;50.900;4.672;2022-07-30T01:10:24;17.70;99.90
9802;DHT22;4940;50.900;4.672;2022-07-30T01:12:51;17.70;99.90
9802;DHT22;4940;50.900;4.672;2022-07-30T01:15:19;17.70;99.90
9802;DHT22;4940;50.900;4.672;2022-07-30T01:17:48;17.70;99.90
9802;DHT22;4940;50.900;4.672;2022-07-30T01:20:22;18.40;99.90
9802;DHT22;4940;50.900;4.672;2022-07-30T01:22:56;17.60;99.90
9802;DHT22;4940;50.900;4.672;2022-07-30T01:25:41;17.50;99.90
9802;DHT22;4940;50.900;4.672;2022-07-30T01:28:13;17.40;99.90
9802;DHT22;4940;50.900;4.672;2022-07-30T01:30:42;17.40;99.90
9802;DHT22;4940;50.900;4.672;2022-07-30T01:33:11;17.40;99.90
9802;DHT22;4940;50.900;4.672;2022-07-30T01:35:41;17.30;99.90
9802;DHT22;4940;50.900;4.672;2022-07-30T01:38:12;17.30;99.90
9802;DHT22;4940;50.900;4.672;2022-07-30T01:40:43;17.30;99.90
9802;DHT22;4940;50.900;4.672;2022-07-30T01:43:11;17.20;99.90
9802;DHT22;4940;50.900;4.672;2022-07-30T01:45:40;17.20;99.90
9802;DHT22;4940;50.900;4.672;2022-07-30T01:48:09;17.20;99.90
9802;DHT22;4940;50.900;4.672;2022-07-30T01:50:38;17.20;99.90
9802;DHT22;4940;50.900;4.672;2022-07-30T01:53:09;17.10;99.90
9802;DHT22;4940;50.900;4.672;2022-07-30T01:55:39;17.10;99.90
9802;DHT22;4940;50.900;4.672;2022-07-30T01:58:10;17.20;99.90
9802;DHT22;4940;50.900;4.672;2022-07-30T02:00:39;17.10;99.90
9802;DHT22;4940;50.900;4.672;2022-07-30T02:03:08;17.00;99.90
9802;DHT22;4940;50.900;4.672;2022-07-30T02:05:36;17.10;99.90
9802;DHT22;4940;50.900;4.672;2022-07-30T02:08:06;16.90;99.90
9802;DHT22;4940;50.900;4.672;2022-07-30T02:10:41;17.20;99.90
9802;DHT22;4940;50.900;4.672;2022-07-30T02:13:13;17.00;99.90
9802;DHT22;4940;50.900;4.672;2022-07-30T02:15:48;16.80;99.90
9802;DHT22;4940;50.900;4.672;2022-07-30T02:18:21;16.90;99.90
9802;DHT22;4940;50.900;4.672;2022-07-30T02:20:54;16.90;99.90
9802;DHT22;4940;50.900;4.672;2022-07-30T02:23:22;16.90;99.90
9802;DHT22;4940;50.900;4.672;2022-07-30T02:25:51;16.90;99.90
9802;DHT22;4940;50.900;4.672;2022-07-30T02:28:21;16.80;99.90
9802;DHT22;4940;50.900;4.672;2022-07-30T02:30:52;16.80;99.90
9802;DHT22;4940;50.900;4.672;2022-07-30T02:33:22;16.80;99.90
9802;DHT22;4940;50.900;4.672;2022-07-30T02:35:51;16.70;99.90
9802;DHT22;4940;50.900;4.672;2022-07-30T02:38:19;16.50;99.90
9802;DHT22;4940;50.900;4.672;2022-07-30T02:40:48;16.70;99.90
9802;DHT22;4940;50.900;4.672;2022-07-30T02:43:15;16.70;99.90
9802;DHT22;4940;50.900;4.672;2022-07-30T02:45:47;16.60;99.90
9802;DHT22;4940;50.900;4.672;2022-07-30T02:48:16;16.60;99.90
9802;DHT22;4940;50.900;4.672;2022-07-30T02:50:44;16.60;99.90
9802;DHT22;4940;50.900;4.672;2022-07-30T02:53:13;16.60;99.90
9802;DHT22;4940;50.900;4.672;2022-07-30T02:55:41;16.60;99.90
9802;DHT22;4940;50.900;4.672;2022-07-30T02:58:10;16.60;99.90
9802;DHT22;4940;50.900;4.672;2022-07-30T03:03:09;16.50;99.90
9802;DHT22;4940;50.900;4.672;2022-07-30T03:05:38;16.50;99.90
9802;DHT22;4940;50.900;4.672;2022-07-30T03:08:07;16.50;99.90
9802;DHT22;4940;50.900;4.672;2022-07-30T03:10:35;16.40;99.90
9802;DHT22;4940;50.900;4.672;2022-07-30T03:13:05;16.40;99.90
9802;DHT22;4940;50.900;4.672;2022-07-30T03:15:33;16.40;99.90
9802;DHT22;4940;50.900;4.672;2022-07-30T03:18:03;16.40;99.90
9802;DHT22;4940;50.900;4.672;2022-07-30T03:20:33;16.30;99.90
9802;DHT22;4940;50.900;4.672;2022-07-30T03:23:02;16.40;99.90
9802;DHT22;4940;50.900;4.672;2022-07-30T03:25:31;16.40;99.90
9802;DHT22;4940;50.900;4.672;2022-07-30T03:28:00;16.30;99.90
9802;DHT22;4940;50.900;4.672;2022-07-30T03:30:29;16.30;99.90
9802;DHT22;4940;50.900;4.672;2022-07-30T03:32:57;16.30;99.90
9802;DHT22;4940;50.900;4.672;2022-07-30T03:35:25;16.30;99.90
9802;DHT22;4940;50.900;4.672;2022-07-30T03:37:54;16.30;99.90
9802;DHT22;4940;50.900;4.672;2022-07-30T03:40:22;16.30;99.90
9802;DHT22;4940;50.900;4.672;2022-07-30T03:42:49;16.40;99.90
9802;DHT22;4940;50.900;4.672;2022-07-30T03:45:18;16.30;99.90
9802;DHT22;4940;50.900;4.672;2022-07-30T03:47:45;16.20;99.90
9802;DHT22;4940;50.900;4.672;2022-07-30T03:50:13;16.20;99.90
9802;DHT22;4940;50.900;4.672;2022-07-30T03:52:41;16.20;99.90
9802;DHT22;4940;50.900;4.672;2022-07-30T03:55:11;16.20;99.90
9802;DHT22;4940;50.900;4.672;2022-07-30T03:57:39;16.10;99.90
9802;DHT22;4940;50.900;4.672;2022-07-30T04:00:12;16.10;99.90
9802;DHT22;4940;50.900;4.672;2022-07-30T04:02:40;16.00;99.90
9802;DHT22;4940;50.900;4.672;2022-07-30T04:05:08;16.10;99.90
9802;DHT22;4940;50.900;4.672;2022-07-30T04:07:35;16.00;99.90
9802;DHT22;4940;50.900;4.672;2022-07-30T04:10:03;16.00;99.90
9802;DHT22;4940;50.900;4.672;2022-07-30T04:14:59;16.00;99.90
9802;DHT22;4940;50.900;4.672;2022-07-30T04:20:15;16.00;99.90
9802;DHT22;4940;50.900;4.672;2022-07-30T04:22:43;16.00;99.90
9802;DHT22;4940;50.900;4.672;2022-07-30T04:25:11;16.00;99.90
9802;DHT22;4940;50.900;4.672;2022-07-30T04:30:08;16.00;99.90
9802;DHT22;4940;50.900;4.672;2022-07-30T04:32:36;16.00;99.90
9802;DHT22;4940;50.900;4.672;2022-07-30T04:35:04;16.00;99.90
9802;DHT22;4940;50.900;4.672;2022-07-30T04:37:31;16.10;99.90
9802;DHT22;4940;50.900;4.672;2022-07-30T04:39:58;16.10;99.90
9802;DHT22;4940;50.900;4.672;2022-07-30T04:42:27;16.10;99.90
9802;DHT22;4940;50.900;4.672;2022-07-30T04:44:56;16.20;99.90
9802;DHT22;4940;50.900;4.672;2022-07-30T04:47:23;16.20;99.90
9802;DHT22;4940;50.900;4.672;2022-07-30T04:49:53;16.20;99.90
9802;DHT22;4940;50.900;4.672;2022-07-30T04:52:21;16.30;99.90
9802;DHT22;4940;50.900;4.672;2022-07-30T04:54:53;16.30;99.90
9802;DHT22;4940;50.900;4.672;2022-07-30T04:57:23;16.40;99.90
9802;DHT22;4940;50.900;4.672;2022-07-30T04:59:51;16.40;99.90
9802;DHT22;4940;50.900;4.672;2022-07-30T05:02:21;16.40;99.90
9802;DHT22;4940;50.900;4.672;2022-07-30T05:04:50;16.50;99.90
9802;DHT22;4940;50.900;4.672;2022-07-30T05:07:18;16.50;99.90
9802;DHT22;4940;50.900;4.672;2022-07-30T05:09:47;16.60;99.90
9802;DHT22;4940;50.900;4.672;2022-07-30T05:12:15;16.70;99.90
9802;DHT22;4940;50.900;4.672;2022-07-30T05:14:42;16.70;99.90
9802;DHT22;4940;50.900;4.672;2022-07-30T05:17:09;16.70;99.90
9802;DHT22;4940;50.900;4.672;2022-07-30T05:19:38;16.70;99.90
9802;DHT22;4940;50.900;4.672;2022-07-30T05:22:05;16.80;99.90
9802;DHT22;4940;50.900;4.672;2022-07-30T05:24:33;16.90;99.90
9802;DHT22;4940;50.900;4.672;2022-07-30T05:27:00;16.90;99.90
9802;DHT22;4940;50.900;4.672;2022-07-30T05:29:27;17.00;99.90
9802;DHT22;4940;50.900;4.672;2022-07-30T05:31:54;17.00;99.90
9802;DHT22;4940;50.900;4.672;2022-07-30T05:34:21;17.10;99.90
9802;DHT22;4940;50.900;4.672;2022-07-30T05:36:50;17.20;99.90
9802;DHT22;4940;50.900;4.672;2022-07-30T05:39:18;17.40;99.90
9802;DHT22;4940;50.900;4.672;2022-07-30T05:41:45;17.50;99.90
9802;DHT22;4940;50.900;4.672;2022-07-30T05:44:12;18.10;99.90
9802;DHT22;4940;50.900;4.672;2022-07-30T05:46:40;18.10;99.90
9802;DHT22;4940;50.900;4.672;2022-07-30T05:49:07;19.30;99.90
9802;DHT22;4940;50.900;4.672;2022-07-30T05:51:34;19.40;99.90
9802;DHT22;4940;50.900;4.672;2022-07-30T05:54:03;24.90;99.90
9802;DHT22;4940;50.900;4.672;2022-07-30T05:56:30;20.80;99.90
9802;DHT22;4940;50.900;4.672;2022-07-30T05:58:57;21.60;99.90
9802;DHT22;4940;50.900;4.672;2022-07-30T06:01:25;22.40;99.90
9802;DHT22;4940;50.900;4.672;2022-07-30T06:03:52;23.70;99.90
9802;DHT22;4940;50.900;4.672;2022-07-30T06:06:20;23.70;99.90
9802;DHT22;4940;50.900;4.672;2022-07-30T06:08:47;24.80;99.90
9802;DHT22;4940;50.900;4.672;2022-07-30T06:11:16;24.90;99.90
9802;DHT22;4940;50.900;4.672;2022-07-30T06:13:43;25.40;99.90
9802;DHT22;4940;50.900;4.672;2022-07-30T06:16:11;26.10;99.90
9802;DHT22;4940;50.900;4.672;2022-07-30T06:18:38;26.20;99.90
9802;DHT22;4940;50.900;4.672;2022-07-30T06:21:05;26.30;99.90
9802;DHT22;4940;50.900;4.672;2022-07-30T06:23:32;26.40;99.90
9802;DHT22;4940;50.900;4.672;2022-07-30T06:26:00;26.70;99.90
9802;DHT22;4940;50.900;4.672;2022-07-30T06:28:28;26.70;99.90
9802;DHT22;4940;50.900;4.672;2022-07-30T06:30:55;27.00;99.90
9802;DHT22;4940;50.900;4.672;2022-07-30T06:33:23;27.10;99.90
9802;DHT22;4940;50.900;4.672;2022-07-30T06:35:50;27.70;99.90
9802;DHT22;4940;50.900;4.672;2022-07-30T06:38:17;28.40;98.60
9802;DHT22;4940;50.900;4.672;2022-07-30T06:40:45;28.50;98.90
9802;DHT22;4940;50.900;4.672;2022-07-30T06:43:12;28.80;97.90
9802;DHT22;4940;50.900;4.672;2022-07-30T06:45:41;29.40;96.30
9802;DHT22;4940;50.900;4.672;2022-07-30T06:48:08;29.70;95.80
9802;DHT22;4940;50.900;4.672;2022-07-30T06:50:36;29.70;95.20
9802;DHT22;4940;50.900;4.672;2022-07-30T06:53:03;30.00;94.90
9802;DHT22;4940;50.900;4.672;2022-07-30T06:55:31;30.50;93.50
9802;DHT22;4940;50.900;4.672;2022-07-30T06:57:58;30.50;93.60
9802;DHT22;4940;50.900;4.672;2022-07-30T07:00:25;31.00;91.10
9802;DHT22;4940;50.900;4.672;2022-07-30T07:02:54;31.30;91.10
9802;DHT22;4940;50.900;4.672;2022-07-30T07:05:21;31.40;91.00
9802;DHT22;4940;50.900;4.672;2022-07-30T07:07:48;31.50;90.80
9802;DHT22;4940;50.900;4.672;2022-07-30T07:10:16;31.70;90.50
9802;DHT22;4940;50.900;4.672;2022-07-30T07:12:43;31.90;89.80
9802;DHT22;4940;50.900;4.672;2022-07-30T07:15:10;32.20;88.10
9802;DHT22;4940;50.900;4.672;2022-07-30T07:17:38;32.40;88.10
9802;DHT22;4940;50.900;4.672;2022-07-30T07:20:09;32.40;87.70
9802;DHT22;4940;50.900;4.672;2022-07-30T07:22:36;32.70;86.70
9802;DHT22;4940;50.900;4.672;2022-07-30T07:25:04;32.80;85.30
9802;DHT22;4940;50.900;4.672;2022-07-30T07:27:32;33.20;82.70
9802;DHT22;4940;50.900;4.672;2022-07-30T07:29:59;33.30;81.20
9802;DHT22;4940;50.900;4.672;2022-07-30T07:32:26;33.30;81.40
9802;DHT22;4940;50.900;4.672;2022-07-30T07:34:54;33.30;81.30
9802;DHT22;4940;50.900;4.672;2022-07-30T07:37:22;33.50;79.40
9802;DHT22;4940;50.900;4.672;2022-07-30T07:39:50;33.60;78.60
9802;DHT22;4940;50.900;4.672;2022-07-30T07:42:17;33.70;78.40
9802;DHT22;4940;50.900;4.672;2022-07-30T07:44:44;34.00;77.40
9802;DHT22;4940;50.900;4.672;2022-07-30T07:47:12;34.00;77.10
9802;DHT22;4940;50.900;4.672;2022-07-30T07:49:39;34.30;76.40
9802;DHT22;4940;50.900;4.672;2022-07-30T07:52:06;34.30;76.10
9802;DHT22;4940;50.900;4.672;2022-07-30T07:54:35;34.20;76.10
9802;DHT22;4940;50.900;4.672;2022-07-30T07:57:02;34.40;74.50
9802;DHT22;4940;50.900;4.672;2022-07-30T07:59:32;34.50;73.90
9802;DHT22;4940;50.900;4.672;2022-07-30T08:02:00;34.70;72.90
9802;DHT22;4940;50.900;4.672;2022-07-30T08:04:27;34.90;70.80
9802;DHT22;4940;50.900;4.672;2022-07-30T08:06:54;35.50;70.50
9802;DHT22;4940;50.900;4.672;2022-07-30T08:09:21;35.40;69.80
9802;DHT22;4940;50.900;4.672;2022-07-30T08:11:50;35.70;69.60
9802;DHT22;4940;50.900;4.672;2022-07-30T08:14:17;36.00;68.60
9802;DHT22;4940;50.900;4.672;2022-07-30T08:16:45;36.00;68.60
9802;DHT22;4940;50.900;4.672;2022-07-30T08:19:12;36.30;67.10
9802;DHT22;4940;50.900;4.672;2022-07-30T08:21:39;36.70;65.70
9802;DHT22;4940;50.900;4.672;2022-07-30T08:24:07;36.70;65.00
9802;DHT22;4940;50.900;4.672;2022-07-30T08:26:34;36.70;64.80
9802;DHT22;4940;50.900;4.672;2022-07-30T08:29:03;36.80;64.20
9802;DHT22;4940;50.900;4.672;2022-07-30T08:31:30;37.00;64.20
9802;DHT22;4940;50.900;4.672;2022-07-30T08:33:58;37.10;62.90
9802;DHT22;4940;50.900;4.672;2022-07-30T08:36:25;37.10;62.70
9802;DHT22;4940;50.900;4.672;2022-07-30T08:38:52;37.20;61.70
9802;DHT22;4940;50.900;4.672;2022-07-30T08:41:20;37.60;59.60
9802;DHT22;4940;50.900;4.672;2022-07-30T08:43:49;37.70;60.00
9802;DHT22;4940;50.900;4.672;2022-07-30T08:46:19;37.80;59.50
9802;DHT22;4940;50.900;4.672;2022-07-30T08:48:47;38.00;59.10
9802;DHT22;4940;50.900;4.672;2022-07-30T08:51:15;38.00;59.00
9802;DHT22;4940;50.900;4.672;2022-07-30T08:53:42;38.10;58.00
9802;DHT22;4940;50.900;4.672;2022-07-30T08:56:10;38.20;58.10
9802;DHT22;4940;50.900;4.672;2022-07-30T08:58:38;38.20;57.90
9802;DHT22;4940;50.900;4.672;2022-07-30T09:01:06;38.30;58.20
9802;DHT22;4940;50.900;4.672;2022-07-30T09:03:37;38.40;57.30
9802;DHT22;4940;50.900;4.672;2022-07-30T09:06:04;38.50;57.30
9802;DHT22;4940;50.900;4.672;2022-07-30T09:08:31;38.60;57.00
9802;DHT22;4940;50.900;4.672;2022-07-30T09:10:59;38.70;56.80
9802;DHT22;4940;50.900;4.672;2022-07-30T09:13:28;38.70;57.10
9802;DHT22;4940;50.900;4.672;2022-07-30T09:15:56;38.50;56.00
9802;DHT22;4940;50.900;4.672;2022-07-30T09:18:28;38.40;56.20
9802;DHT22;4940;50.900;4.672;2022-07-30T09:20:58;38.40;56.60
9802;DHT22;4940;50.900;4.672;2022-07-30T09:23:25;38.40;56.60
9802;DHT22;4940;50.900;4.672;2022-07-30T09:25:52;38.40;56.40
9802;DHT22;4940;50.900;4.672;2022-07-30T09:28:28;38.30;56.70
9802;DHT22;4940;50.900;4.672;2022-07-30T09:30:56;38.40;56.10
9802;DHT22;4940;50.900;4.672;2022-07-30T09:33:34;38.60;56.00
9802;DHT22;4940;50.900;4.672;2022-07-30T09:36:05;38.60;56.10
9802;DHT22;4940;50.900;4.672;2022-07-30T09:38:43;38.80;55.70
9802;DHT22;4940;50.900;4.672;2022-07-30T09:41:11;38.90;55.80
9802;DHT22;4940;50.900;4.672;2022-07-30T09:43:43;39.10;55.60
9802;DHT22;4940;50.900;4.672;2022-07-30T09:46:11;39.10;54.40
9802;DHT22;4940;50.900;4.672;2022-07-30T09:48:38;39.00;53.60
9802;DHT22;4940;50.900;4.672;2022-07-30T09:51:07;38.80;53.40
9802;DHT22;4940;50.900;4.672;2022-07-30T09:53:35;38.70;53.20
9802;DHT22;4940;50.900;4.672;2022-07-30T09:56:23;38.60;53.40
9802;DHT22;4940;50.900;4.672;2022-07-30T09:58:50;38.10;53.50
9802;DHT22;4940;50.900;4.672;2022-07-30T10:01:18;38.10;53.90
9802;DHT22;4940;50.900;4.672;2022-07-30T10:03:45;38.00;55.30
9802;DHT22;4940;50.900;4.672;2022-07-30T10:06:14;38.00;54.80
9802;DHT22;4940;50.900;4.672;2022-07-30T10:08:42;38.00;54.80
9802;DHT22;4940;50.900;4.672;2022-07-30T10:11:11;38.20;54.40
9802;DHT22;4940;50.900;4.672;2022-07-30T10:13:39;38.20;54.30
9802;DHT22;4940;50.900;4.672;2022-07-30T10:16:07;38.20;54.20
9802;DHT22;4940;50.900;4.672;2022-07-30T10:18:34;38.10;53.50
9802;DHT22;4940;50.900;4.672;2022-07-30T10:21:02;38.30;53.60
9802;DHT22;4940;50.900;4.672;2022-07-30T10:23:32;38.20;53.30
9802;DHT22;4940;50.900;4.672;2022-07-30T10:26:01;37.80;53.70
9802;DHT22;4940;50.900;4.672;2022-07-30T10:28:30;37.80;54.30
9802;DHT22;4940;50.900;4.672;2022-07-30T10:30:58;37.60;54.60
9802;DHT22;4940;50.900;4.672;2022-07-30T10:33:28;37.60;55.10
9802;DHT22;4940;50.900;4.672;2022-07-30T10:35:56;37.80;55.20
9802;DHT22;4940;50.900;4.672;2022-07-30T10:38:28;38.20;55.10
9802;DHT22;4940;50.900;4.672;2022-07-30T10:41:03;38.40;54.50
9802;DHT22;4940;50.900;4.672;2022-07-30T10:43:55;38.70;53.70
9802;DHT22;4940;50.900;4.672;2022-07-30T10:46:41;38.70;53.40
9802;DHT22;4940;50.900;4.672;2022-07-30T10:49:11;38.60;54.00
9802;DHT22;4940;50.900;4.672;2022-07-30T10:51:45;38.70;54.10
9802;DHT22;4940;50.900;4.672;2022-07-30T10:54:38;38.90;54.40
9802;DHT22;4940;50.900;4.672;2022-07-30T10:57:10;38.90;53.70
9802;DHT22;4940;50.900;4.672;2022-07-30T11:00:09;38.90;53.90
9802;DHT22;4940;50.900;4.672;2022-07-30T11:02:38;39.10;53.80
9802;DHT22;4940;50.900;4.672;2022-07-30T11:05:20;39.10;53.20
9802;DHT22;4940;50.900;4.672;2022-07-30T11:07:48;39.10;52.20
9802;DHT22;4940;50.900;4.672;2022-07-30T11:10:33;39.10;52.20
9802;DHT22;4940;50.900;4.672;2022-07-30T11:13:03;39.10;52.20
9802;DHT22;4940;50.900;4.672;2022-07-30T11:15:53;39.00;52.40
9802;DHT22;4940;50.900;4.672;2022-07-30T11:18:21;39.00;53.30
9802;DHT22;4940;50.900;4.672;2022-07-30T11:21:15;35.30;49.90
9802;DHT22;4940;50.900;4.672;2022-07-30T11:23:43;38.80;52.20
9802;DHT22;4940;50.900;4.672;2022-07-30T11:26:48;38.60;52.20
9802;DHT22;4940;50.900;4.672;2022-07-30T11:29:35;38.40;52.60
9802;DHT22;4940;50.900;4.672;2022-07-30T11:32:23;38.30;52.90
9802;DHT22;4940;50.900;4.672;2022-07-30T11:34:50;38.00;52.00
9802;DHT22;4940;50.900;4.672;2022-07-30T11:37:18;38.10;52.50
9802;DHT22;4940;50.900;4.672;2022-07-30T11:40:10;38.10;53.00
9802;DHT22;4940;50.900;4.672;2022-07-30T11:42:40;38.20;53.20
9802;DHT22;4940;50.900;4.672;2022-07-30T11:45:26;38.10;53.00
9802;DHT22;4940;50.900;4.672;2022-07-30T11:47:56;37.80;52.10
9802;DHT22;4940;50.900;4.672;2022-07-30T11:50:26;37.80;52.50
9802;DHT22;4940;50.900;4.672;2022-07-30T11:52:55;37.50;52.90
9802;DHT22;4940;50.900;4.672;2022-07-30T11:55:25;37.60;52.90
9802;DHT22;4940;50.900;4.672;2022-07-30T11:57:54;37.50;52.70
9802;DHT22;4940;50.900;4.672;2022-07-30T12:00:22;37.30;52.40
9802;DHT22;4940;50.900;4.672;2022-07-30T12:02:50;37.00;52.10
9802;DHT22;4940;50.900;4.672;2022-07-30T12:05:23;36.90;52.30
9802;DHT22;4940;50.900;4.672;2022-07-30T12:07:50;36.80;52.60
9802;DHT22;4940;50.900;4.672;2022-07-30T12:10:22;36.50;52.40
9802;DHT22;4940;50.900;4.672;2022-07-30T12:12:49;36.50;52.80
9802;DHT22;4940;50.900;4.672;2022-07-30T12:15:31;36.40;53.30
9802;DHT22;4940;50.900;4.672;2022-07-30T12:17:59;36.40;53.20
9802;DHT22;4940;50.900;4.672;2022-07-30T12:20:27;36.30;53.60
9802;DHT22;4940;50.900;4.672;2022-07-30T12:22:55;36.30;53.70
9802;DHT22;4940;50.900;4.672;2022-07-30T12:25:22;36.30;53.80
9802;DHT22;4940;50.900;4.672;2022-07-30T12:27:50;36.30;53.90
9802;DHT22;4940;50.900;4.672;2022-07-30T12:30:18;36.20;53.40
9802;DHT22;4940;50.900;4.672;2022-07-30T12:32:46;36.20;53.70
9802;DHT22;4940;50.900;4.672;2022-07-30T12:35:14;36.00;54.50
9802;DHT22;4940;50.900;4.672;2022-07-30T12:38:00;36.00;55.10
9802;DHT22;4940;50.900;4.672;2022-07-30T12:40:28;35.80;54.60
9802;DHT22;4940;50.900;4.672;2022-07-30T12:42:56;36.00;54.50
9802;DHT22;4940;50.900;4.672;2022-07-30T12:45:28;35.20;54.00
9802;DHT22;4940;50.900;4.672;2022-07-30T12:47:58;36.10;54.20
9802;DHT22;4940;50.900;4.672;2022-07-30T12:50:26;36.10;54.70
9802;DHT22;4940;50.900;4.672;2022-07-30T12:52:54;35.90;53.60
9802;DHT22;4940;50.900;4.672;2022-07-30T12:55:29;35.90;53.90
9802;DHT22;4940;50.900;4.672;2022-07-30T12:57:58;35.80;54.20
9802;DHT22;4940;50.900;4.672;2022-07-30T13:00:28;35.60;54.30
9802;DHT22;4940;50.900;4.672;2022-07-30T13:02:57;35.20;54.10
9802;DHT22;4940;50.900;4.672;2022-07-30T13:05:44;35.20;54.50
9802;DHT22;4940;50.900;4.672;2022-07-30T13:08:12;34.90;55.00
9802;DHT22;4940;50.900;4.672;2022-07-30T13:10:53;34.80;55.80
9802;DHT22;4940;50.900;4.672;2022-07-30T13:13:21;34.70;56.10
9802;DHT22;4940;50.900;4.672;2022-07-30T13:15:57;34.80;55.40
9802;DHT22;4940;50.900;4.672;2022-07-30T13:18:26;34.90;55.80
9802;DHT22;4940;50.900;4.672;2022-07-30T13:20:54;34.70;55.40
9802;DHT22;4940;50.900;4.672;2022-07-30T13:23:21;34.80;55.40
9802;DHT22;4940;50.900;4.672;2022-07-30T13:25:49;34.60;55.80
9802;DHT22;4940;50.900;4.672;2022-07-30T13:28:16;34.10;56.10
9802;DHT22;4940;50.900;4.672;2022-07-30T13:30:44;34.50;56.30
9802;DHT22;4940;50.900;4.672;2022-07-30T13:33:12;34.50;56.20
9802;DHT22;4940;50.900;4.672;2022-07-30T13:35:40;34.40;56.10
9802;DHT22;4940;50.900;4.672;2022-07-30T13:38:08;34.30;56.40
9802;DHT22;4940;50.900;4.672;2022-07-30T13:40:36;34.30;57.20
9802;DHT22;4940;50.900;4.672;2022-07-30T13:43:04;34.20;56.80
9802;DHT22;4940;50.900;4.672;2022-07-30T13:45:31;34.10;56.70
9802;DHT22;4940;50.900;4.672;2022-07-30T13:47:58;33.80;56.80
9802;DHT22;4940;50.900;4.672;2022-07-30T13:50:26;33.80;56.80
9802;DHT22;4940;50.900;4.672;2022-07-30T13:52:54;33.80;57.40
9802;DHT22;4940;50.900;4.672;2022-07-30T13:55:21;33.90;58.20
9802;DHT22;4940;50.900;4.672;2022-07-30T13:57:49;33.90;58.10
9802;DHT22;4940;50.900;4.672;2022-07-30T14:00:16;33.90;57.80
9802;DHT22;4940;50.900;4.672;2022-07-30T14:02:44;33.90;57.50
9802;DHT22;4940;50.900;4.672;2022-07-30T14:05:11;33.90;57.60
9802;DHT22;4940;50.900;4.672;2022-07-30T14:07:39;33.90;57.20
9802;DHT22;4940;50.900;4.672;2022-07-30T14:10:08;33.90;56.20
9802;DHT22;4940;50.900;4.672;2022-07-30T14:12:36;34.00;57.00
9802;DHT22;4940;50.900;4.672;2022-07-30T14:15:05;33.90;56.20
9802;DHT22;4940;50.900;4.672;2022-07-30T14:17:34;33.90;57.30
9802;DHT22;4940;50.900;4.672;2022-07-30T14:20:01;33.90;58.10
9802;DHT22;4940;50.900;4.672;2022-07-30T14:22:29;33.70;57.20
9802;DHT22;4940;50.900;4.672;2022-07-30T14:24:56;33.70;57.40
9802;DHT22;4940;50.900;4.672;2022-07-30T14:27:26;33.70;57.90
9802;DHT22;4940;50.900;4.672;2022-07-30T14:29:53;33.70;57.60
9802;DHT22;4940;50.900;4.672;2022-07-30T14:32:20;33.80;58.00
9802;DHT22;4940;50.900;4.672;2022-07-30T14:34:48;33.90;57.10
9802;DHT22;4940;50.900;4.672;2022-07-30T14:37:15;33.80;56.50
9802;DHT22;4940;50.900;4.672;2022-07-30T14:39:42;33.80;57.00
9802;DHT22;4940;50.900;4.672;2022-07-30T14:42:10;33.80;57.10
9802;DHT22;4940;50.900;4.672;2022-07-30T14:44:39;33.70;56.70
9802;DHT22;4940;50.900;4.672;2022-07-30T14:47:06;33.70;57.10
9802;DHT22;4940;50.900;4.672;2022-07-30T14:49:33;33.70;56.30
9802;DHT22;4940;50.900;4.672;2022-07-30T14:52:01;33.50;56.50
9802;DHT22;4940;50.900;4.672;2022-07-30T14:54:28;33.60;56.80
9802;DHT22;4940;50.900;4.672;2022-07-30T14:56:56;33.40;55.80
9802;DHT22;4940;50.900;4.672;2022-07-30T14:59:24;33.30;55.80
9802;DHT22;4940;50.900;4.672;2022-07-30T15:01:52;33.10;56.50
9802;DHT22;4940;50.900;4.672;2022-07-30T15:04:20;33.00;56.20
9802;DHT22;4940;50.900;4.672;2022-07-30T15:06:47;33.00;56.80
9802;DHT22;4940;50.900;4.672;2022-07-30T15:09:15;33.00;56.90
9802;DHT22;4940;50.900;4.672;2022-07-30T15:11:42;32.80;56.50
9802;DHT22;4940;50.900;4.672;2022-07-30T15:14:09;32.80;56.50
9802;DHT22;4940;50.900;4.672;2022-07-30T15:16:37;32.60;57.00
9802;DHT22;4940;50.900;4.672;2022-07-30T15:19:05;32.50;57.60
9802;DHT22;4940;50.900;4.672;2022-07-30T15:21:33;32.50;58.00
9802;DHT22;4940;50.900;4.672;2022-07-30T15:24:00;32.60;58.30
9802;DHT22;4940;50.900;4.672;2022-07-30T15:26:28;32.60;58.50
9802;DHT22;4940;50.900;4.672;2022-07-30T15:28:55;32.70;57.30
9802;DHT22;4940;50.900;4.672;2022-07-30T15:31:22;32.70;57.70
9802;DHT22;4940;50.900;4.672;2022-07-30T15:33:50;32.80;57.20
9802;DHT22;4940;50.900;4.672;2022-07-30T15:36:18;32.80;57.60
9802;DHT22;4940;50.900;4.672;2022-07-30T15:38:46;32.80;58.40
9802;DHT22;4940;50.900;4.672;2022-07-30T15:41:13;32.80;58.30
9802;DHT22;4940;50.900;4.672;2022-07-30T15:43:40;32.90;58.30
9802;DHT22;4940;50.900;4.672;2022-07-30T15:46:08;32.80;57.90
9802;DHT22;4940;50.900;4.672;2022-07-30T15:48:35;32.70;57.70
9802;DHT22;4940;50.900;4.672;2022-07-30T15:51:03;32.60;57.60
9802;DHT22;4940;50.900;4.672;2022-07-30T15:53:32;32.70;58.30
9802;DHT22;4940;50.900;4.672;2022-07-30T15:55:59;32.60;58.20
9802;DHT22;4940;50.900;4.672;2022-07-30T15:58:27;32.60;58.10
9802;DHT22;4940;50.900;4.672;2022-07-30T16:00:54;32.60;58.40
9802;DHT22;4940;50.900;4.672;2022-07-30T16:03:22;32.50;58.40
9802;DHT22;4940;50.900;4.672;2022-07-30T16:08:16;32.40;58.10
9802;DHT22;4940;50.900;4.672;2022-07-30T16:10:45;32.40;58.80
9802;DHT22;4940;50.900;4.672;2022-07-30T16:13:12;32.30;58.30
9802;DHT22;4940;50.900;4.672;2022-07-30T16:15:40;32.30;58.90
9802;DHT22;4940;50.900;4.672;2022-07-30T16:18:07;32.10;58.70
9802;DHT22;4940;50.900;4.672;2022-07-30T16:20:35;32.20;59.10
9802;DHT22;4940;50.900;4.672;2022-07-30T16:23:02;32.20;59.00
9802;DHT22;4940;50.900;4.672;2022-07-30T16:25:30;32.10;58.70
9802;DHT22;4940;50.900;4.672;2022-07-30T16:27:58;32.00;58.50
9802;DHT22;4940;50.900;4.672;2022-07-30T16:30:26;32.00;58.90
9802;DHT22;4940;50.900;4.672;2022-07-30T16:32:53;32.10;58.50
9802;DHT22;4940;50.900;4.672;2022-07-30T16:35:21;32.00;58.80